sensor_id;sensor_type;location;lat;lon;timestamp;P1;durP1;ratioP1;P2;durP2;ratioP2
57605;SDS011;43430;48.204;11.556;2022-11-21T00:00:36;0.63;;;0.10;;
57605;SDS011;43430;48.204;11.556;2022-11-21T00:03:02;0.50;;;0.10;;
57605;SDS011;43430;48.204;11.556;2022-11-21T00:05:28;1.52;;;0.10;;
57605;SDS011;43430;48.204;11.556;2022-11-21T00:07:54;2.40;;;0.10;;
57605;SDS011;43430;48.204;11.556;2022-11-21T00:10:20;0.35;;;0.08;;
57605;SDS011;43430;48.204;11.556;2022-11-21T00:12:45;0.75;;;0.00;;
57605;SDS011;43430;48.204;11.556;2022-11-21T00:15:11;0.98;;;0.10;;
57605;SDS011;43430;48.204;11.556;2022-11-21T00:17:36;0.60;;;0.10;;
57605;SDS011;43430;48.204;11.556;2022-11-21T00:20:02;0.70;;;0.10;;
57605;SDS011;43430;48.204;11.556;2022-11-21T00:22:27;0.75;;;0.05;;
57605;SDS011;43430;48.204;11.556;2022-11-21T00:24:54;0.80;;;0.10;;
57605;SDS011;43430;48.204;11.556;2022-11-21T00:27:19;0.75;;;0.05;;
57605;SDS011;43430;48.204;11.556;2022-11-21T00:29:45;0.63;;;0.03;;
57605;SDS011;43430;48.204;11.556;2022-11-21T00:32:10;0.80;;;0.10;;
57605;SDS011;43430;48.204;11.556;2022-11-21T00:34:36;0.60;;;0.10;;
57605;SDS011;43430;48.204;11.556;2022-11-21T00:37:01;0.57;;;0.08;;
57605;SDS011;43430;48.204;11.556;2022-11-21T00:39:26;0.68;;;0.10;;
57605;SDS011;43430;48.204;11.556;2022-11-21T00:41:52;0.63;;;0.03;;
57605;SDS011;43430;48.204;11.556;2022-11-21T00:44:17;0.90;;;0.08;;
57605;SDS011;43430;48.204;11.556;2022-11-21T00:46:43;0.68;;;0.00;;
57605;SDS011;43430;48.204;11.556;2022-11-21T00:49:08;0.88;;;0.00;;
57605;SDS011;43430;48.204;11.556;2022-11-21T00:51:33;0.40;;;0.00;;
57605;SDS011;43430;48.204;11.556;2022-11-21T00:53:59;1.63;;;0.10;;
57605;SDS011;43430;48.204;11.556;2022-11-21T00:56:24;0.30;;;0.00;;
57605;SDS011;43430;48.204;11.556;2022-11-21T00:58:49;0.55;;;0.00;;
57605;SDS011;43430;48.204;11.556;2022-11-21T01:01:15;0.80;;;0.10;;
57605;SDS011;43430;48.204;11.556;2022-11-21T01:03:40;0.43;;;0.00;;
57605;SDS011;43430;48.204;11.556;2022-11-21T01:06:07;0.95;;;0.10;;
57605;SDS011;43430;48.204;11.556;2022-11-21T01:08:38;0.77;;;0.00;;
57605;SDS011;43430;48.204;11.556;2022-11-21T01:11:05;0.40;;;0.00;;
57605;SDS011;43430;48.204;11.556;2022-11-21T01:13:32;1.00;;;0.10;;
57605;SDS011;43430;48.204;11.556;2022-11-21T01:16:08;1.58;;;0.10;;
57605;SDS011;43430;48.204;11.556;2022-11-21T01:18:35;0.73;;;0.10;;
57605;SDS011;43430;48.204;11.556;2022-11-21T01:21:02;0.70;;;0.10;;
57605;SDS011;43430;48.204;11.556;2022-11-21T01:23:32;0.52;;;0.10;;
57605;SDS011;43430;48.204;11.556;2022-11-21T01:26:01;0.63;;;0.20;;
57605;SDS011;43430;48.204;11.556;2022-11-21T01:28:31;0.57;;;0.10;;
57605;SDS011;43430;48.204;11.556;2022-11-21T01:31:03;1.15;;;0.20;;
57605;SDS011;43430;48.204;11.556;2022-11-21T01:33:30;0.80;;;0.10;;
57605;SDS011;43430;48.204;11.556;2022-11-21T01:35:55;0.50;;;0.10;;
57605;SDS011;43430;48.204;11.556;2022-11-21T01:38:21;1.17;;;0.03;;
57605;SDS011;43430;48.204;11.556;2022-11-21T01:40:46;0.90;;;0.10;;
57605;SDS011;43430;48.204;11.556;2022-11-21T01:43:12;1.02;;;0.10;;
57605;SDS011;43430;48.204;11.556;2022-11-21T01:48:19;0.77;;;0.10;;
57605;SDS011;43430;48.204;11.556;2022-11-21T01:50:47;0.95;;;0.10;;
57605;SDS011;43430;48.204;11.556;2022-11-21T01:53:12;1.10;;;0.10;;
57605;SDS011;43430;48.204;11.556;2022-11-21T01:55:38;1.83;;;0.10;;
57605;SDS011;43430;48.204;11.556;2022-11-21T01:58:03;0.70;;;0.10;;
57605;SDS011;43430;48.204;11.556;2022-11-21T02:00:31;3.28;;;0.10;;
57605;SDS011;43430;48.204;11.556;2022-11-21T02:03:05;2.45;;;0.17;;
57605;SDS011;43430;48.204;11.556;2022-11-21T02:05:34;1.73;;;0.10;;
57605;SDS011;43430;48.204;11.556;2022-11-21T02:08:03;0.70;;;0.10;;
57605;SDS011;43430;48.204;11.556;2022-11-21T02:10:33;1.55;;;0.20;;
57605;SDS011;43430;48.204;11.556;2022-11-21T02:13:02;0.88;;;0.10;;
57605;SDS011;43430;48.204;11.556;2022-11-21T02:15:28;0.93;;;0.20;;
57605;SDS011;43430;48.204;11.556;2022-11-21T02:17:54;1.27;;;0.10;;
57605;SDS011;43430;48.204;11.556;2022-11-21T02:20:20;2.22;;;0.10;;
57605;SDS011;43430;48.204;11.556;2022-11-21T02:25:35;3.22;;;0.20;;
57605;SDS011;43430;48.204;11.556;2022-11-21T02:28:06;1.55;;;0.10;;
57605;SDS011;43430;48.204;11.556;2022-11-21T02:30:37;1.63;;;0.10;;
57605;SDS011;43430;48.204;11.556;2022-11-21T02:33:04;1.88;;;0.17;;
57605;SDS011;43430;48.204;11.556;2022-11-21T02:35:29;0.60;;;0.13;;
57605;SDS011;43430;48.204;11.556;2022-11-21T02:37:57;0.88;;;0.20;;
57605;SDS011;43430;48.204;11.556;2022-11-21T02:40:24;0.80;;;0.03;;
57605;SDS011;43430;48.204;11.556;2022-11-21T02:43:13;0.95;;;0.10;;
57605;SDS011;43430;48.204;11.556;2022-11-21T02:45:44;1.27;;;0.10;;
57605;SDS011;43430;48.204;11.556;2022-11-21T02:48:11;4.15;;;0.10;;
57605;SDS011;43430;48.204;11.556;2022-11-21T02:50:37;3.15;;;0.20;;
57605;SDS011;43430;48.204;11.556;2022-11-21T02:53:05;0.93;;;0.10;;
57605;SDS011;43430;48.204;11.556;2022-11-21T02:55:33;2.78;;;0.17;;
57605;SDS011;43430;48.204;11.556;2022-11-21T02:57:58;2.78;;;0.13;;
57605;SDS011;43430;48.204;11.556;2022-11-21T03:00:24;1.35;;;0.10;;
57605;SDS011;43430;48.204;11.556;2022-11-21T03:02:49;1.17;;;0.10;;
57605;SDS011;43430;48.204;11.556;2022-11-21T03:05:15;2.72;;;0.10;;
57605;SDS011;43430;48.204;11.556;2022-11-21T03:07:42;1.48;;;0.10;;
57605;SDS011;43430;48.204;11.556;2022-11-21T03:10:08;1.50;;;0.10;;
57605;SDS011;43430;48.204;11.556;2022-11-21T03:12:39;1.15;;;0.20;;
57605;SDS011;43430;48.204;11.556;2022-11-21T03:15:06;1.73;;;0.10;;
57605;SDS011;43430;48.204;11.556;2022-11-21T03:17:33;4.57;;;0.10;;
57605;SDS011;43430;48.204;11.556;2022-11-21T03:19:59;1.25;;;0.17;;
57605;SDS011;43430;48.204;11.556;2022-11-21T03:22:24;2.80;;;0.15;;
57605;SDS011;43430;48.204;11.556;2022-11-21T03:24:50;4.32;;;0.20;;
57605;SDS011;43430;48.204;11.556;2022-11-21T03:27:15;2.60;;;0.10;;
57605;SDS011;43430;48.204;11.556;2022-11-21T03:29:40;0.63;;;0.10;;
57605;SDS011;43430;48.204;11.556;2022-11-21T03:32:06;1.08;;;0.10;;
57605;SDS011;43430;48.204;11.556;2022-11-21T03:34:31;2.50;;;0.10;;
57605;SDS011;43430;48.204;11.556;2022-11-21T03:36:56;3.03;;;0.10;;
57605;SDS011;43430;48.204;11.556;2022-11-21T03:39:22;1.05;;;0.10;;
57605;SDS011;43430;48.204;11.556;2022-11-21T03:41:47;4.07;;;0.10;;
57605;SDS011;43430;48.204;11.556;2022-11-21T03:44:12;1.95;;;0.25;;
57605;SDS011;43430;48.204;11.556;2022-11-21T03:46:40;1.95;;;0.10;;
57605;SDS011;43430;48.204;11.556;2022-11-21T03:49:07;1.05;;;0.10;;
57605;SDS011;43430;48.204;11.556;2022-11-21T03:51:33;0.70;;;0.00;;
57605;SDS011;43430;48.204;11.556;2022-11-21T03:53:58;0.98;;;0.10;;
57605;SDS011;43430;48.204;11.556;2022-11-21T03:56:24;0.45;;;0.08;;
57605;SDS011;43430;48.204;11.556;2022-11-21T03:58:50;1.38;;;0.08;;
57605;SDS011;43430;48.204;11.556;2022-11-21T04:01:16;1.08;;;0.10;;
57605;SDS011;43430;48.204;11.556;2022-11-21T04:03:41;6.47;;;0.10;;
57605;SDS011;43430;48.204;11.556;2022-11-21T04:06:08;3.22;;;0.10;;
57605;SDS011;43430;48.204;11.556;2022-11-21T04:08:35;0.75;;;0.20;;
57605;SDS011;43430;48.204;11.556;2022-11-21T04:11:00;0.82;;;0.10;;
57605;SDS011;43430;48.204;11.556;2022-11-21T04:13:25;1.77;;;0.10;;
57605;SDS011;43430;48.204;11.556;2022-11-21T04:15:51;5.20;;;0.10;;
57605;SDS011;43430;48.204;11.556;2022-11-21T04:18:16;0.60;;;0.10;;
57605;SDS011;43430;48.204;11.556;2022-11-21T04:20:42;3.05;;;0.28;;
57605;SDS011;43430;48.204;11.556;2022-11-21T04:23:07;1.27;;;0.10;;
57605;SDS011;43430;48.204;11.556;2022-11-21T04:25:33;2.78;;;0.20;;
57605;SDS011;43430;48.204;11.556;2022-11-21T04:27:59;1.60;;;0.10;;
57605;SDS011;43430;48.204;11.556;2022-11-21T04:30:26;1.50;;;0.30;;
57605;SDS011;43430;48.204;11.556;2022-11-21T04:32:52;0.80;;;0.10;;
57605;SDS011;43430;48.204;11.556;2022-11-21T04:35:18;1.85;;;0.10;;
57605;SDS011;43430;48.204;11.556;2022-11-21T04:37:44;1.77;;;0.10;;
57605;SDS011;43430;48.204;11.556;2022-11-21T04:40:10;2.67;;;0.08;;
57605;SDS011;43430;48.204;11.556;2022-11-21T04:42:39;1.38;;;0.10;;
57605;SDS011;43430;48.204;11.556;2022-11-21T04:45:05;1.42;;;0.10;;
57605;SDS011;43430;48.204;11.556;2022-11-21T04:47:31;1.52;;;0.10;;
57605;SDS011;43430;48.204;11.556;2022-11-21T04:49:56;3.03;;;0.10;;
57605;SDS011;43430;48.204;11.556;2022-11-21T04:52:21;0.82;;;0.10;;
57605;SDS011;43430;48.204;11.556;2022-11-21T04:54:47;1.80;;;0.10;;
57605;SDS011;43430;48.204;11.556;2022-11-21T04:57:13;4.22;;;0.22;;
57605;SDS011;43430;48.204;11.556;2022-11-21T04:59:38;2.30;;;0.10;;
57605;SDS011;43430;48.204;11.556;2022-11-21T05:02:04;1.42;;;0.10;;
57605;SDS011;43430;48.204;11.556;2022-11-21T05:04:29;3.85;;;0.13;;
57605;SDS011;43430;48.204;11.556;2022-11-21T05:06:54;3.13;;;0.10;;
57605;SDS011;43430;48.204;11.556;2022-11-21T05:09:20;2.47;;;0.10;;
57605;SDS011;43430;48.204;11.556;2022-11-21T05:11:45;2.70;;;0.10;;
57605;SDS011;43430;48.204;11.556;2022-11-21T05:14:29;5.00;;;0.10;;
57605;SDS011;43430;48.204;11.556;2022-11-21T05:16:54;1.75;;;0.10;;
57605;SDS011;43430;48.204;11.556;2022-11-21T05:19:19;3.70;;;0.28;;
57605;SDS011;43430;48.204;11.556;2022-11-21T05:21:45;2.53;;;0.10;;
57605;SDS011;43430;48.204;11.556;2022-11-21T05:24:10;3.80;;;0.10;;
57605;SDS011;43430;48.204;11.556;2022-11-21T05:26:35;2.58;;;0.10;;
57605;SDS011;43430;48.204;11.556;2022-11-21T05:29:02;3.35;;;0.10;;
57605;SDS011;43430;48.204;11.556;2022-11-21T05:31:27;1.30;;;0.10;;
57605;SDS011;43430;48.204;11.556;2022-11-21T05:33:53;2.60;;;0.20;;
57605;SDS011;43430;48.204;11.556;2022-11-21T05:36:18;3.75;;;0.22;;
57605;SDS011;43430;48.204;11.556;2022-11-21T05:38:43;0.77;;;0.10;;
57605;SDS011;43430;48.204;11.556;2022-11-21T05:41:09;1.35;;;0.20;;
57605;SDS011;43430;48.204;11.556;2022-11-21T05:43:34;1.75;;;0.10;;
57605;SDS011;43430;48.204;11.556;2022-11-21T05:46:12;0.80;;;0.10;;
57605;SDS011;43430;48.204;11.556;2022-11-21T05:48:39;2.03;;;0.10;;
57605;SDS011;43430;48.204;11.556;2022-11-21T05:51:04;1.08;;;0.03;;
57605;SDS011;43430;48.204;11.556;2022-11-21T05:53:30;1.67;;;0.10;;
57605;SDS011;43430;48.204;11.556;2022-11-21T05:55:59;3.55;;;0.10;;
57605;SDS011;43430;48.204;11.556;2022-11-21T05:58:27;2.35;;;0.50;;
57605;SDS011;43430;48.204;11.556;2022-11-21T06:00:56;2.65;;;0.10;;
57605;SDS011;43430;48.204;11.556;2022-11-21T06:03:22;1.83;;;0.20;;
57605;SDS011;43430;48.204;11.556;2022-11-21T06:06:13;2.85;;;0.15;;
57605;SDS011;43430;48.204;11.556;2022-11-21T06:08:42;0.80;;;0.10;;
57605;SDS011;43430;48.204;11.556;2022-11-21T06:11:09;1.08;;;0.10;;
57605;SDS011;43430;48.204;11.556;2022-11-21T06:13:39;1.58;;;0.10;;
57605;SDS011;43430;48.204;11.556;2022-11-21T06:16:06;2.85;;;0.10;;
57605;SDS011;43430;48.204;11.556;2022-11-21T06:18:34;1.63;;;0.20;;
57605;SDS011;43430;48.204;11.556;2022-11-21T06:21:04;2.58;;;0.25;;
57605;SDS011;43430;48.204;11.556;2022-11-21T06:23:40;3.97;;;0.57;;
57605;SDS011;43430;48.204;11.556;2022-11-21T06:26:07;0.82;;;0.10;;
57605;SDS011;43430;48.204;11.556;2022-11-21T06:28:37;2.35;;;0.10;;
57605;SDS011;43430;48.204;11.556;2022-11-21T06:31:04;0.82;;;0.10;;
57605;SDS011;43430;48.204;11.556;2022-11-21T06:33:35;1.07;;;0.10;;
57605;SDS011;43430;48.204;11.556;2022-11-21T06:36:05;1.05;;;0.20;;
57605;SDS011;43430;48.204;11.556;2022-11-21T06:38:32;1.42;;;0.10;;
57605;SDS011;43430;48.204;11.556;2022-11-21T06:41:02;2.15;;;0.10;;
57605;SDS011;43430;48.204;11.556;2022-11-21T06:43:46;0.80;;;0.10;;
57605;SDS011;43430;48.204;11.556;2022-11-21T06:46:12;2.00;;;0.20;;
57605;SDS011;43430;48.204;11.556;2022-11-21T06:48:38;2.25;;;0.10;;
57605;SDS011;43430;48.204;11.556;2022-11-21T06:51:05;1.88;;;0.20;;
57605;SDS011;43430;48.204;11.556;2022-11-21T06:53:32;1.30;;;0.20;;
57605;SDS011;43430;48.204;11.556;2022-11-21T06:55:58;1.48;;;0.10;;
57605;SDS011;43430;48.204;11.556;2022-11-21T06:58:24;1.35;;;0.10;;
57605;SDS011;43430;48.204;11.556;2022-11-21T07:00:50;2.90;;;0.20;;
57605;SDS011;43430;48.204;11.556;2022-11-21T07:03:15;1.38;;;0.20;;
57605;SDS011;43430;48.204;11.556;2022-11-21T07:05:41;2.60;;;0.20;;
57605;SDS011;43430;48.204;11.556;2022-11-21T07:08:06;1.45;;;0.13;;
57605;SDS011;43430;48.204;11.556;2022-11-21T07:10:31;1.00;;;0.10;;
57605;SDS011;43430;48.204;11.556;2022-11-21T07:12:57;1.95;;;0.28;;
57605;SDS011;43430;48.204;11.556;2022-11-21T07:15:42;2.47;;;0.10;;
57605;SDS011;43430;48.204;11.556;2022-11-21T07:18:08;1.15;;;0.13;;
57605;SDS011;43430;48.204;11.556;2022-11-21T07:20:33;1.95;;;0.10;;
57605;SDS011;43430;48.204;11.556;2022-11-21T07:22:58;0.98;;;0.08;;
57605;SDS011;43430;48.204;11.556;2022-11-21T07:25:25;1.17;;;0.10;;
57605;SDS011;43430;48.204;11.556;2022-11-21T07:27:50;1.60;;;0.10;;
57605;SDS011;43430;48.204;11.556;2022-11-21T07:30:16;1.05;;;0.10;;
57605;SDS011;43430;48.204;11.556;2022-11-21T07:32:41;1.38;;;0.10;;
57605;SDS011;43430;48.204;11.556;2022-11-21T07:35:06;0.90;;;0.17;;
57605;SDS011;43430;48.204;11.556;2022-11-21T07:37:36;1.10;;;0.20;;
57605;SDS011;43430;48.204;11.556;2022-11-21T07:40:02;0.95;;;0.20;;
57605;SDS011;43430;48.204;11.556;2022-11-21T07:42:28;1.63;;;0.10;;
57605;SDS011;43430;48.204;11.556;2022-11-21T07:44:56;2.15;;;0.10;;
57605;SDS011;43430;48.204;11.556;2022-11-21T07:47:22;1.77;;;0.10;;
57605;SDS011;43430;48.204;11.556;2022-11-21T07:49:47;0.70;;;0.10;;
57605;SDS011;43430;48.204;11.556;2022-11-21T07:52:12;1.75;;;0.10;;
57605;SDS011;43430;48.204;11.556;2022-11-21T07:54:37;1.08;;;0.10;;
57605;SDS011;43430;48.204;11.556;2022-11-21T07:57:03;0.52;;;0.08;;
57605;SDS011;43430;48.204;11.556;2022-11-21T07:59:28;1.70;;;0.00;;
57605;SDS011;43430;48.204;11.556;2022-11-21T08:01:53;2.28;;;0.10;;
57605;SDS011;43430;48.204;11.556;2022-11-21T08:04:19;0.40;;;0.00;;
57605;SDS011;43430;48.204;11.556;2022-11-21T08:06:44;1.08;;;0.13;;
57605;SDS011;43430;48.204;11.556;2022-11-21T08:09:09;0.63;;;0.10;;
57605;SDS011;43430;48.204;11.556;2022-11-21T08:11:35;1.00;;;0.10;;
57605;SDS011;43430;48.204;11.556;2022-11-21T08:14:01;0.82;;;0.10;;
57605;SDS011;43430;48.204;11.556;2022-11-21T08:16:27;1.98;;;0.03;;
57605;SDS011;43430;48.204;11.556;2022-11-21T08:18:54;1.35;;;0.10;;
57605;SDS011;43430;48.204;11.556;2022-11-21T08:21:20;0.55;;;0.05;;
57605;SDS011;43430;48.204;11.556;2022-11-21T08:23:45;0.98;;;0.10;;
57605;SDS011;43430;48.204;11.556;2022-11-21T08:26:11;1.05;;;0.25;;
57605;SDS011;43430;48.204;11.556;2022-11-21T08:28:36;0.85;;;0.10;;
57605;SDS011;43430;48.204;11.556;2022-11-21T08:31:02;1.33;;;0.10;;
57605;SDS011;43430;48.204;11.556;2022-11-21T08:33:28;0.47;;;0.08;;
57605;SDS011;43430;48.204;11.556;2022-11-21T08:35:54;0.98;;;0.45;;
57605;SDS011;43430;48.204;11.556;2022-11-21T08:38:19;0.85;;;0.10;;
57605;SDS011;43430;48.204;11.556;2022-11-21T08:40:44;0.30;;;0.00;;
57605;SDS011;43430;48.204;11.556;2022-11-21T08:43:10;0.55;;;0.20;;
57605;SDS011;43430;48.204;11.556;2022-11-21T08:45:35;1.85;;;0.00;;
57605;SDS011;43430;48.204;11.556;2022-11-21T08:48:02;0.20;;;0.00;;
57605;SDS011;43430;48.204;11.556;2022-11-21T08:50:28;0.40;;;0.10;;
57605;SDS011;43430;48.204;11.556;2022-11-21T08:52:59;0.75;;;0.10;;
57605;SDS011;43430;48.204;11.556;2022-11-21T08:55:25;1.98;;;0.25;;
57605;SDS011;43430;48.204;11.556;2022-11-21T08:57:51;1.30;;;0.10;;
57605;SDS011;43430;48.204;11.556;2022-11-21T09:00:16;1.42;;;0.10;;
57605;SDS011;43430;48.204;11.556;2022-11-21T09:02:42;1.88;;;0.10;;
57605;SDS011;43430;48.204;11.556;2022-11-21T09:05:07;0.28;;;0.00;;
57605;SDS011;43430;48.204;11.556;2022-11-21T09:07:34;2.47;;;0.10;;
57605;SDS011;43430;48.204;11.556;2022-11-21T09:09:59;2.17;;;0.40;;
57605;SDS011;43430;48.204;11.556;2022-11-21T09:12:25;0.57;;;0.00;;
57605;SDS011;43430;48.204;11.556;2022-11-21T09:14:50;0.90;;;0.10;;
57605;SDS011;43430;48.204;11.556;2022-11-21T09:17:34;0.95;;;0.10;;
57605;SDS011;43430;48.204;11.556;2022-11-21T09:20:18;2.38;;;0.10;;
57605;SDS011;43430;48.204;11.556;2022-11-21T09:22:43;1.08;;;0.10;;
57605;SDS011;43430;48.204;11.556;2022-11-21T09:25:08;2.13;;;0.10;;
57605;SDS011;43430;48.204;11.556;2022-11-21T09:27:34;0.93;;;0.10;;
57605;SDS011;43430;48.204;11.556;2022-11-21T09:29:59;0.75;;;0.10;;
57605;SDS011;43430;48.204;11.556;2022-11-21T09:32:24;0.52;;;0.00;;
57605;SDS011;43430;48.204;11.556;2022-11-21T09:34:50;0.43;;;0.00;;
57605;SDS011;43430;48.204;11.556;2022-11-21T09:37:15;1.90;;;0.10;;
57605;SDS011;43430;48.204;11.556;2022-11-21T09:39:40;2.38;;;0.10;;
57605;SDS011;43430;48.204;11.556;2022-11-21T09:42:11;1.95;;;0.10;;
57605;SDS011;43430;48.204;11.556;2022-11-21T09:45:12;4.50;;;0.17;;
57605;SDS011;43430;48.204;11.556;2022-11-21T09:47:42;2.28;;;0.10;;
57605;SDS011;43430;48.204;11.556;2022-11-21T09:52:37;3.38;;;0.10;;
57605;SDS011;43430;48.204;11.556;2022-11-21T09:55:17;2.80;;;0.28;;
57605;SDS011;43430;48.204;11.556;2022-11-21T09:57:51;1.15;;;0.15;;
57605;SDS011;43430;48.204;11.556;2022-11-21T10:00:23;0.73;;;0.10;;
57605;SDS011;43430;48.204;11.556;2022-11-21T10:02:52;1.60;;;0.10;;
57605;SDS011;43430;48.204;11.556;2022-11-21T10:05:22;2.35;;;0.20;;
57605;SDS011;43430;48.204;11.556;2022-11-21T10:07:57;1.92;;;0.10;;
57605;SDS011;43430;48.204;11.556;2022-11-21T10:10:42;1.95;;;0.20;;
57605;SDS011;43430;48.204;11.556;2022-11-21T10:13:22;4.25;;;0.30;;
57605;SDS011;43430;48.204;11.556;2022-11-21T10:25:22;1.27;;;0.10;;
57605;SDS011;43430;48.204;11.556;2022-11-21T10:30:27;3.50;;;0.10;;
57605;SDS011;43430;48.204;11.556;2022-11-21T10:33:03;2.97;;;0.30;;
57605;SDS011;43430;48.204;11.556;2022-11-21T10:38:23;0.75;;;0.13;;
57605;SDS011;43430;48.204;11.556;2022-11-21T10:40:50;1.92;;;0.10;;
57605;SDS011;43430;48.204;11.556;2022-11-21T10:43:42;5.13;;;0.15;;
57605;SDS011;43430;48.204;11.556;2022-11-21T10:46:32;2.03;;;0.22;;
57605;SDS011;43430;48.204;11.556;2022-11-21T10:48:58;3.55;;;0.10;;
57605;SDS011;43430;48.204;11.556;2022-11-21T10:51:44;3.40;;;0.15;;
57605;SDS011;43430;48.204;11.556;2022-11-21T10:54:20;1.25;;;0.20;;
57605;SDS011;43430;48.204;11.556;2022-11-21T10:56:59;1.08;;;0.20;;
57605;SDS011;43430;48.204;11.556;2022-11-21T10:59:30;1.55;;;0.10;;
57605;SDS011;43430;48.204;11.556;2022-11-21T11:01:59;2.00;;;0.13;;
57605;SDS011;43430;48.204;11.556;2022-11-21T11:04:30;2.57;;;0.10;;
57605;SDS011;43430;48.204;11.556;2022-11-21T11:06:56;3.05;;;0.10;;
57605;SDS011;43430;48.204;11.556;2022-11-21T11:14:49;1.20;;;0.10;;
57605;SDS011;43430;48.204;11.556;2022-11-21T11:17:24;1.50;;;0.20;;
57605;SDS011;43430;48.204;11.556;2022-11-21T11:19:58;2.80;;;0.10;;
57605;SDS011;43430;48.204;11.556;2022-11-21T11:22:26;2.78;;;0.28;;
57605;SDS011;43430;48.204;11.556;2022-11-21T11:24:53;1.15;;;0.10;;
57605;SDS011;43430;48.204;11.556;2022-11-21T11:27:18;2.45;;;0.10;;
57605;SDS011;43430;48.204;11.556;2022-11-21T11:29:51;3.78;;;0.20;;
57605;SDS011;43430;48.204;11.556;2022-11-21T11:32:17;1.33;;;0.10;;
57605;SDS011;43430;48.204;11.556;2022-11-21T11:43:11;3.00;;;0.10;;
57605;SDS011;43430;48.204;11.556;2022-11-21T11:49:35;0.98;;;0.10;;
57605;SDS011;43430;48.204;11.556;2022-11-21T11:52:27;4.88;;;0.20;;
57605;SDS011;43430;48.204;11.556;2022-11-21T11:54:57;0.70;;;0.10;;
57605;SDS011;43430;48.204;11.556;2022-11-21T11:57:27;2.55;;;0.10;;
57605;SDS011;43430;48.204;11.556;2022-11-21T12:00:31;6.15;;;0.10;;
57605;SDS011;43430;48.204;11.556;2022-11-21T12:05:30;1.55;;;0.20;;
57605;SDS011;43430;48.204;11.556;2022-11-21T12:08:02;2.92;;;0.10;;
57605;SDS011;43430;48.204;11.556;2022-11-21T12:10:54;0.68;;;0.10;;
57605;SDS011;43430;48.204;11.556;2022-11-21T12:13:49;2.15;;;0.38;;
57605;SDS011;43430;48.204;11.556;2022-11-21T12:16:18;4.03;;;0.10;;
57605;SDS011;43430;48.204;11.556;2022-11-21T12:21:22;3.75;;;0.10;;
57605;SDS011;43430;48.204;11.556;2022-11-21T12:23:49;2.13;;;0.03;;
57605;SDS011;43430;48.204;11.556;2022-11-21T12:40:47;3.05;;;0.20;;
57605;SDS011;43430;48.204;11.556;2022-11-21T12:49:51;1.83;;;0.30;;
57605;SDS011;43430;48.204;11.556;2022-11-21T12:53:09;4.53;;;0.30;;
57605;SDS011;43430;48.204;11.556;2022-11-21T12:56:05;2.28;;;0.10;;
57605;SDS011;43430;48.204;11.556;2022-11-21T12:58:38;3.47;;;0.30;;
57605;SDS011;43430;48.204;11.556;2022-11-21T13:04:03;0.60;;;0.17;;
57605;SDS011;43430;48.204;11.556;2022-11-21T13:06:34;1.55;;;0.10;;
57605;SDS011;43430;48.204;11.556;2022-11-21T13:09:03;4.57;;;0.50;;
57605;SDS011;43430;48.204;11.556;2022-11-21T13:19:50;2.92;;;0.10;;
57605;SDS011;43430;48.204;11.556;2022-11-21T13:24:59;1.80;;;0.10;;
57605;SDS011;43430;48.204;11.556;2022-11-21T13:45:47;1.48;;;0.10;;
57605;SDS011;43430;48.204;11.556;2022-11-21T13:55:58;2.42;;;0.20;;
57605;SDS011;43430;48.204;11.556;2022-11-21T13:58:36;2.80;;;0.10;;
57605;SDS011;43430;48.204;11.556;2022-11-21T14:01:10;2.67;;;0.20;;
57605;SDS011;43430;48.204;11.556;2022-11-21T14:06:40;3.25;;;0.35;;
57605;SDS011;43430;48.204;11.556;2022-11-21T14:11:44;2.17;;;0.20;;
57605;SDS011;43430;48.204;11.556;2022-11-21T14:14:36;1.80;;;0.20;;
57605;SDS011;43430;48.204;11.556;2022-11-21T14:17:08;4.40;;;0.20;;
57605;SDS011;43430;48.204;11.556;2022-11-21T14:19:57;2.28;;;0.20;;
57605;SDS011;43430;48.204;11.556;2022-11-21T14:22:30;3.70;;;0.40;;
57605;SDS011;43430;48.204;11.556;2022-11-21T14:24:59;5.07;;;0.20;;
57605;SDS011;43430;48.204;11.556;2022-11-21T14:27:27;2.47;;;0.10;;
57605;SDS011;43430;48.204;11.556;2022-11-21T14:29:55;3.55;;;0.20;;
57605;SDS011;43430;48.204;11.556;2022-11-21T14:32:27;4.78;;;0.45;;
57605;SDS011;43430;48.204;11.556;2022-11-21T14:35:06;2.58;;;0.10;;
57605;SDS011;43430;48.204;11.556;2022-11-21T14:37:42;3.55;;;0.77;;
57605;SDS011;43430;48.204;11.556;2022-11-21T14:40:29;2.10;;;0.20;;
57605;SDS011;43430;48.204;11.556;2022-11-21T14:42:53;4.25;;;0.30;;
57605;SDS011;43430;48.204;11.556;2022-11-21T14:45:20;1.20;;;0.15;;
57605;SDS011;43430;48.204;11.556;2022-11-21T14:47:50;1.23;;;0.15;;
57605;SDS011;43430;48.204;11.556;2022-11-21T14:50:27;0.93;;;0.00;;
57605;SDS011;43430;48.204;11.556;2022-11-21T14:52:54;1.40;;;0.10;;
57605;SDS011;43430;48.204;11.556;2022-11-21T14:55:29;1.80;;;0.20;;
57605;SDS011;43430;48.204;11.556;2022-11-21T14:57:57;3.47;;;0.30;;
57605;SDS011;43430;48.204;11.556;2022-11-21T15:00:25;2.90;;;0.20;;
57605;SDS011;43430;48.204;11.556;2022-11-21T15:02:53;2.97;;;0.20;;
57605;SDS011;43430;48.204;11.556;2022-11-21T15:05:20;2.17;;;0.30;;
57605;SDS011;43430;48.204;11.556;2022-11-21T15:07:52;2.67;;;0.15;;
57605;SDS011;43430;48.204;11.556;2022-11-21T15:10:18;4.65;;;0.25;;
57605;SDS011;43430;48.204;11.556;2022-11-21T15:15:47;1.17;;;0.10;;
57605;SDS011;43430;48.204;11.556;2022-11-21T15:18:20;2.63;;;0.38;;
57605;SDS011;43430;48.204;11.556;2022-11-21T15:20:48;4.32;;;0.85;;
57605;SDS011;43430;48.204;11.556;2022-11-21T15:23:30;4.72;;;1.10;;
57605;SDS011;43430;48.204;11.556;2022-11-21T15:25:57;4.82;;;0.80;;
57605;SDS011;43430;48.204;11.556;2022-11-21T15:28:23;4.88;;;0.50;;
57605;SDS011;43430;48.204;11.556;2022-11-21T15:33:54;4.97;;;0.40;;
57605;SDS011;43430;48.204;11.556;2022-11-21T15:36:30;1.92;;;0.20;;
57605;SDS011;43430;48.204;11.556;2022-11-21T15:41:29;4.30;;;0.73;;
57605;SDS011;43430;48.204;11.556;2022-11-21T15:46:31;7.35;;;1.20;;
57605;SDS011;43430;48.204;11.556;2022-11-21T15:48:59;9.45;;;1.50;;
57605;SDS011;43430;48.204;11.556;2022-11-21T15:53:51;3.45;;;0.50;;
57605;SDS011;43430;48.204;11.556;2022-11-21T15:56:17;3.17;;;0.50;;
57605;SDS011;43430;48.204;11.556;2022-11-21T15:58:44;3.83;;;0.60;;
57605;SDS011;43430;48.204;11.556;2022-11-21T16:01:20;5.43;;;0.63;;
57605;SDS011;43430;48.204;11.556;2022-11-21T16:03:48;2.25;;;0.40;;
57605;SDS011;43430;48.204;11.556;2022-11-21T16:06:15;6.45;;;0.73;;
57605;SDS011;43430;48.204;11.556;2022-11-21T16:08:41;5.57;;;1.10;;
57605;SDS011;43430;48.204;11.556;2022-11-21T16:11:06;6.45;;;1.35;;
57605;SDS011;43430;48.204;11.556;2022-11-21T16:13:40;7.60;;;1.88;;
57605;SDS011;43430;48.204;11.556;2022-11-21T16:16:05;110.63;;;44.35;;
57605;SDS011;43430;48.204;11.556;2022-11-21T16:18:30;137.73;;;61.35;;
57605;SDS011;43430;48.204;11.556;2022-11-21T16:21:06;45.83;;;25.48;;
57605;SDS011;43430;48.204;11.556;2022-11-21T16:23:32;3.78;;;1.65;;
57605;SDS011;43430;48.204;11.556;2022-11-21T16:25:57;4.43;;;1.00;;
57605;SDS011;43430;48.204;11.556;2022-11-21T16:28:23;4.03;;;0.50;;
57605;SDS011;43430;48.204;11.556;2022-11-21T16:30:48;3.22;;;0.50;;
57605;SDS011;43430;48.204;11.556;2022-11-21T16:33:13;2.70;;;0.47;;
57605;SDS011;43430;48.204;11.556;2022-11-21T16:35:39;2.67;;;0.60;;
57605;SDS011;43430;48.204;11.556;2022-11-21T16:38:14;4.97;;;0.90;;
57605;SDS011;43430;48.204;11.556;2022-11-21T16:40:39;7.25;;;0.70;;
57605;SDS011;43430;48.204;11.556;2022-11-21T16:43:08;5.00;;;1.13;;
57605;SDS011;43430;48.204;11.556;2022-11-21T16:45:38;4.80;;;0.47;;
57605;SDS011;43430;48.204;11.556;2022-11-21T16:48:04;5.07;;;0.77;;